Time;durP1;ratioP1;P1;durP2;ratioP2;P2;SDS_P1;SDS_P2;PMS_P1;PMS_P2;Temp;Humidity;BMP_temperature;BMP_pressure;BME280_temperature;BME280_humidity;BME280_pressure;Samples;Min_cycle;Max_cycle;Signal;HPM_P1;HPM_P2
2021/12/17 00:00:57;;;;;;;36.53;15.00;;;10.80;99.90;;;;;;4972143;28;20931;-68
2021/12/17 00:03:35;;;;;;;29.30;15.10;;;10.90;99.90;;;;;;4967292;28;20457;-69
2021/12/17 00:06:16;;;;;;;44.57;15.70;;;11.00;99.90;;;;;;4970032;28;20473;-70
2021/12/17 00:08:45;;;;;;;45.00;16.70;;;10.90;99.90;;;;;;4969736;28;20573;-70
2021/12/17 00:11:12;;;;;;;32.60;13.60;;;10.90;99.90;;;;;;4967697;28;21205;-69
2021/12/17 00:13:42;;;;;;;34.00;14.53;;;10.80;99.90;;;;;;4969037;28;20622;-69
2021/12/17 00:16:15;;;;;;;41.17;15.30;;;10.80;99.90;;;;;;4969567;28;20920;-69
2021/12/17 00:18:56;;;;;;;39.13;13.77;;;10.80;99.90;;;;;;4968682;28;20465;-70
2021/12/17 00:49:02;;;;;;;31.90;13.60;;;10.90;99.90;;;;;;4971920;28;20465;-69
2021/12/17 00:54:20;;;;;;;27.67;12.63;;;10.80;99.90;;;;;;4969529;28;20478;-69
2021/12/17 00:56:48;;;;;;;45.90;16.23;;;10.70;99.90;;;;;;4968632;28;20471;-71
2021/12/17 00:59:15;;;;;;;36.40;16.60;;;10.80;99.90;;;;;;4967721;28;20837;-69
2021/12/17 01:01:42;;;;;;;39.33;17.03;;;10.80;99.90;;;;;;4966454;28;20551;-69
2021/12/17 01:04:10;;;;;;;55.70;18.30;;;10.80;99.90;;;;;;4967163;28;20487;-71
2021/12/17 01:06:37;;;;;;;42.83;16.00;;;11.00;99.90;;;;;;4965772;28;20814;-69
2021/12/17 01:09:06;;;;;;;39.80;15.70;;;10.90;99.90;;;;;;4970909;28;20610;-70
2021/12/17 01:11:35;;;;;;;39.80;13.97;;;10.90;99.90;;;;;;4966639;28;20548;-71
2021/12/17 01:14:02;;;;;;;36.23;16.90;;;10.80;99.90;;;;;;4958009;28;20550;-69
2021/12/17 01:16:29;;;;;;;32.73;12.70;;;10.80;99.90;;;;;;4960919;28;20490;-70
2021/12/17 01:19:05;;;;;;;37.67;15.50;;;10.70;99.90;;;;;;4968638;28;20466;-70
2021/12/17 01:21:42;;;;;;;40.43;15.07;;;10.70;99.90;;;;;;4967581;28;20461;-70
2021/12/17 01:24:18;;;;;;;31.77;15.30;;;10.80;99.90;;;;;;4973000;28;20493;-69
2021/12/17 01:43:24;;;;;;;22.03;12.97;;;10.80;99.90;;;;;;4973317;28;20432;-69
2021/12/17 01:45:51;;;;;;;30.67;13.33;;;10.80;99.90;;;;;;4963216;28;20486;-69
2021/12/17 01:48:22;;;;;;;34.83;14.73;;;10.80;99.90;;;;;;4970806;28;20481;-69
2021/12/17 01:56:37;;;;;;;32.43;14.60;;;10.70;99.90;;;;;;4960598;28;20601;-69
2021/12/17 01:59:23;;;;;;;27.67;11.37;;;10.70;99.90;;;;;;4969590;28;21242;-69
2021/12/17 02:01:54;;;;;;;35.33;15.00;;;10.80;99.90;;;;;;4972097;28;20463;-70
2021/12/17 02:04:21;;;;;;;31.17;12.73;;;10.80;99.90;;;;;;4965440;28;21708;-71
2021/12/17 02:06:48;;;;;;;30.30;14.30;;;10.80;99.90;;;;;;4966396;28;20968;-70
2021/12/17 02:09:52;;;;;;;35.73;16.37;;;10.70;99.90;;;;;;4970761;28;20701;-68
2021/12/17 02:12:35;;;;;;;37.13;14.17;;;10.60;99.90;;;;;;4967790;28;20453;-69
2021/12/17 02:29:55;;;;;;;36.13;17.20;;;10.70;99.90;;;;;;4969247;28;20454;-71
2021/12/17 02:32:25;;;;;;;34.27;14.90;;;10.70;99.90;;;;;;4962716;28;24375;-69
2021/12/17 02:35:08;;;;;;;31.13;14.57;;;10.80;99.90;;;;;;4956567;28;20547;-71
2021/12/17 02:37:36;;;;;;;37.80;13.87;;;10.60;99.90;;;;;;4963035;28;20464;-70
2021/12/17 02:40:18;;;;;;;48.23;12.57;;;10.60;99.90;;;;;;4964801;28;20620;-69
2021/12/17 02:45:32;;;;;;;34.33;14.93;;;10.60;99.90;;;;;;4966283;28;21119;-68
2021/12/17 02:48:03;;;;;;;35.57;13.67;;;10.50;99.90;;;;;;4954522;28;20472;-69
2021/12/17 02:50:30;;;;;;;29.73;15.97;;;10.50;99.90;;;;;;4968667;28;20458;-70
2021/12/17 02:53:02;;;;;;;33.80;12.10;;;10.60;99.90;;;;;;4968786;28;20499;-68
2021/12/17 02:55:30;;;;;;;27.80;13.67;;;10.60;99.90;;;;;;4965092;28;20947;-69
2021/12/17 02:57:58;;;;;;;36.30;14.30;;;10.60;99.90;;;;;;4963812;28;20534;-69
2021/12/17 03:00:26;;;;;;;40.00;15.30;;;10.60;99.90;;;;;;4966286;28;20484;-69
2021/12/17 03:02:56;;;;;;;33.47;13.00;;;10.60;99.90;;;;;;4961274;28;20465;-70
2021/12/17 03:05:26;;;;;;;40.33;16.03;;;10.70;99.90;;;;;;4951508;28;21018;-70
2021/12/17 03:07:53;;;;;;;28.33;12.67;;;10.70;99.90;;;;;;4956875;28;20477;-69
2021/12/17 03:10:22;;;;;;;43.47;17.93;;;10.70;99.90;;;;;;4956894;28;21056;-68
2021/12/17 03:12:52;;;;;;;44.23;17.93;;;10.90;99.90;;;;;;4955702;28;20589;-70
2021/12/17 03:15:29;;;;;;;36.30;15.70;;;11.00;99.90;;;;;;4961467;28;20565;-69
2021/12/17 03:23:28;;;;;;;41.23;18.47;;;10.80;99.90;;;;;;4964335;28;21211;-70
2021/12/17 03:25:58;;;;;;;45.53;15.43;;;10.70;99.90;;;;;;4952716;28;20462;-69
2021/12/17 03:28:25;;;;;;;28.90;14.70;;;10.80;99.90;;;;;;4962651;28;20500;-70
2021/12/17 03:30:52;;;;;;;41.93;13.30;;;10.90;99.90;;;;;;4972245;28;20468;-70
2021/12/17 03:33:20;;;;;;;35.37;15.73;;;10.80;99.90;;;;;;4970676;28;20718;-70
2021/12/17 03:35:47;;;;;;;37.07;13.77;;;10.80;99.90;;;;;;4961649;28;20482;-70
2021/12/17 03:38:15;;;;;;;27.60;12.67;;;10.80;99.90;;;;;;4968323;28;20432;-70
2021/12/17 03:40:43;;;;;;;33.33;14.90;;;10.80;99.90;;;;;;4978273;28;20471;-69
2021/12/17 03:43:13;;;;;;;40.10;17.43;;;10.70;99.90;;;;;;4971443;28;20845;-69
2021/12/17 03:45:41;;;;;;;36.80;14.73;;;10.70;99.90;;;;;;4974063;28;20636;-69
2021/12/17 03:48:08;;;;;;;37.93;17.90;;;10.70;99.90;;;;;;4975790;28;20544;-68
2021/12/17 03:50:36;;;;;;;33.10;13.83;;;10.70;99.90;;;;;;4976078;28;20485;-69
2021/12/17 03:53:05;;;;;;;38.03;15.27;;;10.70;99.90;;;;;;4974931;28;20470;-69
2021/12/17 03:55:32;;;;;;;36.47;13.70;;;10.70;99.90;;;;;;4972257;28;21533;-69
2021/12/17 03:58:00;;;;;;;29.87;12.77;;;10.60;99.90;;;;;;4968897;28;20453;-71
2021/12/17 04:00:29;;;;;;;44.87;16.80;;;10.60;99.90;;;;;;4971928;28;20510;-72
2021/12/17 04:02:56;;;;;;;25.10;14.20;;;10.40;99.90;;;;;;4972806;28;20496;-70
2021/12/17 04:05:25;;;;;;;34.80;16.77;;;10.40;99.90;;;;;;4973531;28;20481;-69
2021/12/17 04:07:52;;;;;;;21.30;12.77;;;10.40;99.90;;;;;;4975046;28;20560;-69
2021/12/17 04:10:19;;;;;;;36.67;16.83;;;10.50;99.90;;;;;;4968518;28;22777;-70
2021/12/17 04:12:53;;;;;;;35.33;14.40;;;10.70;99.90;;;;;;4968218;28;20531;-72
2021/12/17 04:15:30;;;;;;;29.23;12.37;;;10.70;99.90;;;;;;4957272;28;20595;-71
2021/12/17 04:17:59;;;;;;;50.23;16.87;;;10.70;99.90;;;;;;4970857;28;20526;-69
2021/12/17 04:20:26;;;;;;;39.53;17.30;;;10.70;99.90;;;;;;4977043;28;20486;-70
2021/12/17 04:22:53;;;;;;;46.17;16.13;;;10.70;99.90;;;;;;4968778;28;20540;-69
2021/12/17 04:25:20;;;;;;;34.13;14.97;;;10.80;99.90;;;;;;4975092;28;20576;-69
2021/12/17 04:27:47;;;;;;;28.17;13.53;;;10.80;99.90;;;;;;4969216;28;20444;-71
2021/12/17 04:30:14;;;;;;;45.87;16.07;;;10.80;99.90;;;;;;4975123;28;20843;-69
2021/12/17 04:32:42;;;;;;;35.33;14.20;;;10.80;99.90;;;;;;4967191;28;20473;-70
2021/12/17 04:35:10;;;;;;;31.50;16.70;;;10.80;99.90;;;;;;4966605;28;21191;-69
2021/12/17 04:37:37;;;;;;;42.60;16.90;;;10.80;99.90;;;;;;4976846;28;20595;-70
2021/12/17 04:40:05;;;;;;;48.53;19.43;;;10.80;99.90;;;;;;4967897;28;20493;-70
2021/12/17 04:42:40;;;;;;;36.00;14.27;;;10.80;99.90;;;;;;4966514;28;20481;-70
2021/12/17 04:45:08;;;;;;;26.63;12.47;;;10.70;99.90;;;;;;4964916;28;20484;-68
2021/12/17 04:58:34;;;;;;;35.17;17.00;;;10.60;99.90;;;;;;4962125;28;20588;-69
2021/12/17 05:01:08;;;;;;;24.13;9.73;;;10.50;99.90;;;;;;4961269;28;20508;-70
2021/12/17 05:03:35;;;;;;;42.13;17.37;;;10.60;99.90;;;;;;4970041;28;21293;-70
2021/12/17 05:06:03;;;;;;;35.93;14.07;;;10.50;99.90;;;;;;4964007;28;20527;-70
2021/12/17 05:08:30;;;;;;;42.50;14.20;;;10.40;99.90;;;;;;4970592;28;20457;-70
2021/12/17 05:19:22;;;;;;;39.80;14.57;;;10.30;99.90;;;;;;4958579;28;21171;-70
2021/12/17 05:21:50;;;;;;;43.60;14.07;;;10.20;99.90;;;;;;4964469;28;20835;-70
2021/12/17 05:24:17;;;;;;;44.80;15.17;;;10.20;99.90;;;;;;4950933;28;21128;-70
2021/12/17 05:26:44;;;;;;;45.07;14.00;;;10.10;99.90;;;;;;4958385;28;20458;-70
2021/12/17 05:29:11;;;;;;;41.60;14.70;;;10.00;99.90;;;;;;4964039;28;20998;-69
2021/12/17 05:31:38;;;;;;;36.73;14.87;;;10.10;99.90;;;;;;4959310;28;21313;-69
2021/12/17 05:34:05;;;;;;;43.70;15.90;;;10.00;99.90;;;;;;4950429;28;20536;-70
2021/12/17 05:36:32;;;;;;;31.10;12.60;;;9.90;99.90;;;;;;4960724;28;20638;-71
2021/12/17 05:39:01;;;;;;;18.17;9.23;;;10.00;99.90;;;;;;4981377;28;20442;-71
2021/12/17 05:41:28;;;;;;;28.83;11.73;;;10.00;99.90;;;;;;4967291;28;20600;-68
2021/12/17 05:43:57;;;;;;;23.00;10.60;;;9.90;99.90;;;;;;4966370;28;20486;-69
2021/12/17 05:46:37;;;;;;;28.80;12.60;;;9.90;99.90;;;;;;4959343;28;20465;-68
2021/12/17 05:49:05;;;;;;;28.37;9.53;;;10.10;99.90;;;;;;4960349;28;20461;-70
2021/12/17 05:51:32;;;;;;;25.13;9.90;;;10.10;99.90;;;;;;4958195;28;20857;-70
2021/12/17 05:54:01;;;;;;;26.63;10.17;;;10.00;99.90;;;;;;4966047;28;21023;-69
2021/12/17 05:56:28;;;;;;;24.33;10.33;;;10.00;99.90;;;;;;4971045;28;20461;-69
2021/12/17 05:58:56;;;;;;;19.43;10.77;;;10.10;99.90;;;;;;4969588;28;20491;-69
2021/12/17 06:01:23;;;;;;;19.23;12.00;;;10.00;99.90;;;;;;4972929;28;20485;-70
2021/12/17 06:03:50;;;;;;;19.90;9.13;;;10.00;99.90;;;;;;4961962;28;20894;-72
2021/12/17 06:06:27;;;;;;;30.57;8.27;;;10.00;99.90;;;;;;4971374;28;20576;-70
2021/12/17 06:08:54;;;;;;;19.40;8.87;;;10.10;99.90;;;;;;4978310;28;20574;-70
2021/12/17 06:11:22;;;;;;;19.43;8.57;;;10.10;99.90;;;;;;4960299;28;20494;-69
2021/12/17 06:13:49;;;;;;;27.13;10.00;;;10.20;99.90;;;;;;4962841;28;20488;-70
2021/12/17 06:16:16;;;;;;;18.43;7.70;;;10.00;99.90;;;;;;4966404;28;20523;-69
2021/12/17 06:18:43;;;;;;;22.43;8.37;;;10.00;99.90;;;;;;4979054;28;20437;-70
2021/12/17 06:21:11;;;;;;;16.27;9.30;;;10.00;99.90;;;;;;4979222;28;20510;-69
2021/12/17 06:23:38;;;;;;;18.40;8.03;;;10.00;99.90;;;;;;4985244;28;20890;-68
2021/12/17 06:26:06;;;;;;;15.87;7.30;;;10.10;99.90;;;;;;4974808;28;20498;-69
2021/12/17 06:28:35;;;;;;;18.40;6.93;;;10.20;99.90;;;;;;4980192;28;20564;-70
2021/12/17 06:31:02;;;;;;;26.10;8.03;;;10.20;99.90;;;;;;4981820;28;20494;-71
2021/12/17 06:33:28;;;;;;;14.17;7.03;;;10.20;99.90;;;;;;4981832;28;20909;-69
2021/12/17 06:35:56;;;;;;;21.73;8.07;;;10.20;99.90;;;;;;4967940;28;20891;-69
2021/12/17 06:38:24;;;;;;;20.60;8.10;;;10.10;99.90;;;;;;4981449;28;20777;-70
2021/12/17 06:40:53;;;;;;;20.30;8.53;;;10.20;99.90;;;;;;4963952;28;21030;-70
2021/12/17 06:43:23;;;;;;;15.43;9.17;;;10.20;99.90;;;;;;4971085;28;20780;-71
2021/12/17 06:45:56;;;;;;;17.30;7.40;;;10.20;99.90;;;;;;4959710;28;20596;-71
2021/12/17 06:48:27;;;;;;;16.80;7.30;;;10.10;99.90;;;;;;4975702;28;20486;-69
2021/12/17 06:59:21;;;;;;;23.07;10.37;;;10.10;99.90;;;;;;4979484;28;20468;-70
2021/12/17 07:10:28;;;;;;;20.73;9.50;;;9.90;99.90;;;;;;4975292;28;20621;-69
2021/12/17 07:35:26;;;;;;;18.27;8.43;;;10.00;99.90;;;;;;4979840;28;20493;-68
2021/12/17 07:40:38;;;;;;;17.00;7.87;;;10.10;99.90;;;;;;4982582;28;20453;-70
2021/12/17 07:43:11;;;;;;;15.53;7.90;;;10.10;99.90;;;;;;4982194;28;20491;-68
2021/12/17 07:45:39;;;;;;;10.03;6.03;;;10.10;99.90;;;;;;4981381;28;20489;-68
2021/12/17 07:48:07;;;;;;;16.93;7.77;;;10.10;99.90;;;;;;4979768;28;20495;-69
2021/12/17 07:50:36;;;;;;;19.93;7.50;;;10.20;99.90;;;;;;4978736;28;20584;-70
2021/12/17 07:53:03;;;;;;;14.00;7.00;;;10.20;99.90;;;;;;4986109;28;20555;-70
2021/12/17 07:55:30;;;;;;;19.40;7.70;;;10.20;99.90;;;;;;4967300;28;20695;-71
2021/12/17 07:57:57;;;;;;;17.43;7.60;;;10.20;99.90;;;;;;4984992;28;20847;-71
2021/12/17 08:00:24;;;;;;;13.83;7.30;;;10.30;99.90;;;;;;4984050;28;20463;-69
2021/12/17 08:02:52;;;;;;;12.90;7.03;;;10.20;99.90;;;;;;4982259;28;20919;-69
2021/12/17 08:05:19;;;;;;;13.17;6.47;;;10.20;99.90;;;;;;4979199;28;20517;-70
2021/12/17 08:07:47;;;;;;;10.03;6.43;;;10.10;99.90;;;;;;4977922;28;20469;-69
2021/12/17 08:10:14;;;;;;;14.60;6.63;;;10.00;99.90;;;;;;4979732;28;20592;-69
2021/12/17 08:12:41;;;;;;;12.23;8.10;;;10.10;99.90;;;;;;4975104;28;20540;-69
2021/12/17 08:15:11;;;;;;;10.17;6.17;;;10.10;99.90;;;;;;4977095;28;20478;-68
2021/12/17 08:17:52;;;;;;;13.57;6.60;;;10.00;99.90;;;;;;4979758;28;20543;-69
2021/12/17 08:26:09;;;;;;;13.10;6.43;;;9.80;99.90;;;;;;4954625;28;20510;-70
2021/12/17 08:31:30;;;;;;;15.10;7.27;;;9.70;99.90;;;;;;5082329;27;20683;-71
2021/12/17 08:33:58;;;;;;;11.47;6.67;;;9.90;99.90;;;;;;5062253;28;20590;-68
2021/12/17 08:36:25;;;;;;;11.33;5.40;;;9.90;99.90;;;;;;5069362;28;20981;-68
2021/12/17 08:38:52;;;;;;;9.97;6.10;;;9.90;99.90;;;;;;5070993;28;20549;-68
2021/12/17 08:41:21;;;;;;;9.20;5.73;;;9.90;99.90;;;;;;5077238;28;20513;-69
2021/12/17 08:43:48;;;;;;;18.00;9.17;;;10.00;99.90;;;;;;5069229;28;21511;-70
2021/12/17 08:46:15;;;;;;;13.80;6.83;;;10.10;99.90;;;;;;5068650;28;21328;-69
2021/12/17 08:48:44;;;;;;;8.00;5.93;;;10.10;99.90;;;;;;5073135;28;20514;-69
2021/12/17 08:51:11;;;;;;;9.00;5.00;;;10.00;99.90;;;;;;5071668;28;20584;-69
2021/12/17 08:53:39;;;;;;;7.37;5.50;;;9.90;99.90;;;;;;5081985;28;20472;-68
2021/12/17 08:56:06;;;;;;;9.57;5.70;;;9.90;99.90;;;;;;5076773;28;20492;-68
2021/12/17 08:58:35;;;;;;;9.83;5.80;;;9.90;99.90;;;;;;5073401;28;20428;-69
2021/12/17 09:01:05;;;;;;;10.50;5.13;;;10.00;99.90;;;;;;5073264;28;20511;-68
2021/12/17 09:03:32;;;;;;;10.37;5.23;;;10.10;99.90;;;;;;5078728;28;20907;-69
2021/12/17 09:06:01;;;;;;;8.73;5.70;;;10.10;99.90;;;;;;5068454;28;20519;-69
2021/12/17 09:08:28;;;;;;;8.37;4.40;;;10.00;99.90;;;;;;5076156;28;21000;-68
2021/12/17 09:10:56;;;;;;;9.57;5.00;;;9.90;99.90;;;;;;5052919;28;20589;-70
2021/12/17 09:13:25;;;;;;;7.57;5.00;;;9.90;99.90;;;;;;5069477;28;20461;-68
2021/12/17 09:15:54;;;;;;;6.30;4.03;;;9.80;99.90;;;;;;5073016;28;20849;-69
2021/12/17 09:18:21;;;;;;;7.37;4.40;;;9.80;99.90;;;;;;5074828;28;20868;-70
2021/12/17 09:20:48;;;;;;;5.80;3.50;;;9.70;99.90;;;;;;5071398;28;20453;-68
2021/12/17 09:23:16;;;;;;;8.47;4.93;;;9.70;99.90;;;;;;5076162;28;20457;-71
2021/12/17 09:25:44;;;;;;;9.20;4.70;;;9.70;99.90;;;;;;5067455;28;20515;-69
2021/12/17 09:28:11;;;;;;;10.63;7.63;;;9.80;99.90;;;;;;5071100;28;20472;-70
2021/12/17 09:30:38;;;;;;;11.37;5.83;;;9.90;99.90;;;;;;5069277;28;20869;-69
2021/12/17 09:33:05;;;;;;;9.03;5.40;;;9.90;99.90;;;;;;5067492;28;20570;-69
2021/12/17 09:35:32;;;;;;;7.93;4.57;;;10.00;99.90;;;;;;5069248;28;20882;-69
2021/12/17 09:37:59;;;;;;;12.67;5.30;;;9.90;99.90;;;;;;5073687;28;20510;-69
2021/12/17 09:40:28;;;;;;;8.93;5.80;;;10.00;99.90;;;;;;5076489;28;20887;-69
2021/12/17 09:42:55;;;;;;;8.40;4.50;;;9.90;99.90;;;;;;5055506;28;20541;-69
2021/12/17 09:45:22;;;;;;;8.60;5.63;;;9.90;99.90;;;;;;5058854;28;20631;-70
2021/12/17 09:47:49;;;;;;;11.60;5.03;;;9.90;99.90;;;;;;5054139;28;20486;-69
2021/12/17 09:50:19;;;;;;;10.47;6.13;;;10.00;99.90;;;;;;5061966;28;20481;-70
2021/12/17 09:52:46;;;;;;;7.17;4.50;;;10.10;99.90;;;;;;5058219;28;20486;-71
2021/12/17 09:55:13;;;;;;;6.83;3.83;;;10.10;99.90;;;;;;5047839;28;20664;-69
2021/12/17 09:57:41;;;;;;;7.33;4.90;;;10.10;99.90;;;;;;5058015;28;20536;-69
2021/12/17 10:00:13;;;;;;;5.50;3.30;;;10.30;99.90;;;;;;5059532;28;20447;-70
2021/12/17 10:02:43;;;;;;;6.90;3.87;;;10.20;99.90;;;;;;5054788;28;20833;-71
2021/12/17 10:05:14;;;;;;;8.50;4.87;;;10.30;99.90;;;;;;5056477;28;20487;-70
2021/12/17 10:07:44;;;;;;;9.03;4.77;;;10.20;99.90;;;;;;5055537;28;20541;-69
2021/12/17 10:10:13;;;;;;;11.57;4.53;;;10.30;99.90;;;;;;5062239;28;20486;-69
2021/12/17 10:12:41;;;;;;;7.17;3.60;;;10.30;99.90;;;;;;5048602;28;20968;-69
2021/12/17 10:15:11;;;;;;;8.00;5.97;;;10.30;99.90;;;;;;5052114;28;20638;-70
2021/12/17 10:17:51;;;;;;;9.60;3.50;;;10.40;99.90;;;;;;5058565;28;20941;-68
2021/12/17 10:20:18;;;;;;;9.47;6.00;;;10.50;99.90;;;;;;5059950;28;20516;-69
2021/12/17 10:22:45;;;;;;;7.30;4.40;;;10.30;99.90;;;;;;5060144;28;20611;-69
2021/12/17 10:25:12;;;;;;;12.57;5.10;;;10.20;99.90;;;;;;5050642;28;20474;-69
2021/12/17 10:27:42;;;;;;;5.70;3.10;;;10.40;99.90;;;;;;5046335;28;20471;-69
2021/12/17 10:30:13;;;;;;;6.10;3.40;;;10.50;99.90;;;;;;5050180;28;20564;-69
2021/12/17 10:32:43;;;;;;;9.10;3.87;;;10.40;99.90;;;;;;5059605;28;20458;-68
2021/12/17 10:35:12;;;;;;;3.63;2.93;;;10.50;99.90;;;;;;5053637;28;20486;-69
2021/12/17 10:37:42;;;;;;;4.57;2.50;;;10.30;99.90;;;;;;5063484;28;20465;-69
2021/12/17 10:40:28;;;;;;;5.63;3.60;;;10.40;99.90;;;;;;5058651;28;20478;-69
2021/12/17 10:43:03;;;;;;;7.77;2.90;;;10.30;99.90;;;;;;5060976;28;21035;-68
2021/12/17 10:45:33;;;;;;;6.67;3.40;;;10.30;99.90;;;;;;5053179;28;20470;-68
2021/12/17 10:48:32;;;;;;;4.37;3.97;;;10.20;99.90;;;;;;5058772;28;20463;-70
2021/12/17 10:51:32;;;;;;;6.13;4.20;;;10.10;99.90;;;;;;5058965;28;22567;-70
2021/12/17 10:54:05;;;;;;;5.03;2.97;;;10.00;99.90;;;;;;5055133;28;20854;-69
2021/12/17 10:56:33;;;;;;;5.73;2.63;;;9.90;99.90;;;;;;5057159;28;20906;-69
2021/12/17 10:59:04;;;;;;;6.03;3.40;;;9.90;99.90;;;;;;5056352;28;20458;-71
2021/12/17 11:01:44;;;;;;;6.70;2.97;;;9.90;99.90;;;;;;5054439;28;20455;-69
2021/12/17 11:04:15;;;;;;;11.43;3.70;;;10.00;99.90;;;;;;5055027;28;20514;-68
2021/12/17 11:06:50;;;;;;;7.00;3.70;;;10.00;99.90;;;;;;5053799;28;20443;-70
2021/12/17 11:09:38;;;;;;;2.73;2.30;;;10.10;99.90;;;;;;5056878;28;20546;-69
2021/12/17 11:12:32;;;;;;;5.73;2.83;;;10.00;99.90;;;;;;5052573;28;20548;-69
2021/12/17 11:15:20;;;;;;;6.43;2.83;;;10.20;99.90;;;;;;5054178;28;20970;-68
2021/12/17 11:17:49;;;;;;;3.33;2.70;;;10.30;99.90;;;;;;5057111;28;20548;-69
2021/12/17 11:20:18;;;;;;;3.53;2.40;;;10.20;99.90;;;;;;5060744;28;20977;-70
2021/12/17 11:22:47;;;;;;;4.30;2.70;;;10.10;99.90;;;;;;5057723;28;20858;-69
2021/12/17 11:25:14;;;;;;;4.40;2.90;;;10.20;99.90;;;;;;5044643;28;20492;-69
2021/12/17 11:27:42;;;;;;;4.07;2.40;;;10.10;99.90;;;;;;5045355;28;21030;-70
2021/12/17 11:30:11;;;;;;;9.60;3.10;;;10.20;99.90;;;;;;5056863;28;20536;-69
2021/12/17 11:32:42;;;;;;;4.80;2.53;;;10.10;99.90;;;;;;5057143;28;20742;-69
2021/12/17 11:35:10;;;;;;;6.27;3.10;;;10.30;99.90;;;;;;5052720;28;20490;-70
2021/12/17 11:37:39;;;;;;;6.70;4.40;;;10.30;99.90;;;;;;5051371;28;20556;-71
2021/12/17 11:40:10;;;;;;;6.03;2.90;;;10.30;99.90;;;;;;5051833;28;20862;-71
2021/12/17 11:43:01;;;;;;;3.43;3.10;;;10.40;99.90;;;;;;5042803;28;20556;-70
2021/12/17 11:45:29;;;;;;;2.50;1.47;;;10.50;99.90;;;;;;5047715;28;20498;-70
2021/12/17 11:48:14;;;;;;;3.70;2.57;;;10.70;99.90;;;;;;5029879;28;20466;-71
2021/12/17 11:50:41;;;;;;;4.00;2.20;;;10.70;99.90;;;;;;5050410;28;20470;-69
2021/12/17 11:53:23;;;;;;;7.10;4.00;;;10.80;99.90;;;;;;5039455;28;20462;-69
2021/12/17 11:55:57;;;;;;;6.40;3.67;;;10.70;99.90;;;;;;5052513;28;20481;-70
2021/12/17 11:58:46;;;;;;;5.03;3.63;;;10.70;99.90;;;;;;5049890;28;20451;-70
2021/12/17 12:01:13;;;;;;;3.93;2.60;;;10.40;99.90;;;;;;5043862;28;20656;-72
2021/12/17 12:03:41;;;;;;;7.50;4.40;;;10.20;99.90;;;;;;5046214;28;20532;-70
2021/12/17 12:06:34;;;;;;;5.43;4.03;;;10.20;99.90;;;;;;5043581;28;20848;-70
2021/12/17 12:09:05;;;;;;;6.67;3.10;;;10.20;99.90;;;;;;5052584;28;20466;-71
2021/12/17 12:11:32;;;;;;;6.00;2.77;;;10.20;99.90;;;;;;5045951;28;20838;-71
2021/12/17 12:13:59;;;;;;;7.63;3.13;;;10.20;99.90;;;;;;5044872;28;20800;-68
2021/12/17 12:16:30;;;;;;;5.03;2.93;;;10.20;99.90;;;;;;5037823;28;20473;-70
2021/12/17 12:19:08;;;;;;;4.47;3.40;;;10.10;99.90;;;;;;5047514;28;20686;-71
2021/12/17 12:21:37;;;;;;;4.50;3.17;;;10.20;99.90;;;;;;5036213;28;20469;-71
2021/12/17 12:24:13;;;;;;;6.47;4.50;;;10.20;99.90;;;;;;5048945;28;20628;-69
2021/12/17 12:26:43;;;;;;;9.13;4.17;;;10.30;99.90;;;;;;5033874;28;20552;-69
2021/12/17 12:29:13;;;;;;;4.33;3.23;;;10.20;99.90;;;;;;5041879;28;20687;-69
2021/12/17 12:31:54;;;;;;;7.90;4.50;;;10.20;99.90;;;;;;5044982;28;20479;-69
2021/12/17 12:34:30;;;;;;;3.60;2.40;;;10.30;99.90;;;;;;5034349;28;20489;-70
2021/12/17 12:37:00;;;;;;;5.90;3.40;;;10.50;99.90;;;;;;5043734;28;20446;-70
2021/12/17 12:39:29;;;;;;;11.00;3.30;;;10.50;99.90;;;;;;5027461;28;20473;-70
2021/12/17 12:42:06;;;;;;;4.30;2.40;;;10.60;99.90;;;;;;5040271;28;20596;-70
2021/12/17 12:45:09;;;;;;;7.00;2.87;;;10.60;99.90;;;;;;5058682;28;21573;-68
2021/12/17 12:47:55;;;;;;;7.17;1.90;;;10.50;99.90;;;;;;4996689;28;20461;-71
2021/12/17 12:50:26;;;;;;;4.10;2.00;;;10.50;99.90;;;;;;5048017;28;20802;-70
2021/12/17 12:52:54;;;;;;;4.93;4.30;;;10.50;99.90;;;;;;5052374;28;21029;-70
2021/12/17 12:55:25;;;;;;;10.80;3.80;;;10.60;99.90;;;;;;5041687;28;20901;-70
2021/12/17 12:57:54;;;;;;;3.60;2.20;;;10.60;99.90;;;;;;5060691;28;20461;-70
2021/12/17 13:00:24;;;;;;;10.50;4.10;;;10.80;99.90;;;;;;5041623;28;20956;-71
2021/12/17 13:02:55;;;;;;;8.90;3.67;;;10.80;99.90;;;;;;5044412;28;20553;-70
2021/12/17 13:05:24;;;;;;;4.40;2.80;;;10.90;99.90;;;;;;5039719;28;20569;-70
2021/12/17 13:07:52;;;;;;;4.63;3.17;;;11.10;99.90;;;;;;5049158;28;20548;-70
2021/12/17 13:10:22;;;;;;;3.80;2.63;;;11.10;99.90;;;;;;5032098;28;20510;-69
2021/12/17 13:12:54;;;;;;;4.00;2.43;;;10.80;99.90;;;;;;5048984;28;20534;-70
2021/12/17 13:15:39;;;;;;;7.67;3.70;;;10.90;99.90;;;;;;5044930;28;20964;-69
2021/12/17 13:23:47;;;;;;;4.93;3.10;;;10.50;99.90;;;;;;5038985;28;20459;-69
2021/12/17 13:26:14;;;;;;;8.40;3.43;;;10.50;99.90;;;;;;5032522;28;22113;-70
2021/12/17 13:28:51;;;;;;;1.97;1.70;;;10.60;99.90;;;;;;5040788;28;21415;-70
2021/12/17 13:31:34;;;;;;;5.00;3.30;;;10.70;99.90;;;;;;5033500;28;20481;-69
2021/12/17 13:34:01;;;;;;;4.47;2.63;;;10.60;99.90;;;;;;5034827;28;20477;-70
2021/12/17 13:36:29;;;;;;;3.00;1.80;;;10.60;99.90;;;;;;5055490;28;20490;-71
2021/12/17 13:38:58;;;;;;;3.43;2.97;;;10.40;99.90;;;;;;5060507;28;20462;-69
2021/12/17 13:41:36;;;;;;;4.07;2.00;;;10.30;99.90;;;;;;5054422;28;20450;-70
2021/12/17 13:44:04;;;;;;;5.00;3.13;;;10.30;99.90;;;;;;5052224;28;20510;-69
2021/12/17 13:46:31;;;;;;;3.80;2.37;;;10.30;99.90;;;;;;5051159;28;21429;-68
2021/12/17 13:48:58;;;;;;;3.47;3.00;;;10.40;99.90;;;;;;5060326;28;20832;-71
2021/12/17 13:51:25;;;;;;;5.47;3.03;;;10.50;99.90;;;;;;5040362;28;20976;-72
2021/12/17 13:53:56;;;;;;;5.83;3.77;;;10.50;99.90;;;;;;5057987;28;20563;-70
2021/12/17 13:56:23;;;;;;;5.50;3.50;;;10.40;99.90;;;;;;5059565;28;20456;-70
2021/12/17 13:58:50;;;;;;;3.67;2.93;;;10.40;99.90;;;;;;5057282;28;20457;-69
2021/12/17 14:01:22;;;;;;;8.57;4.13;;;10.40;99.90;;;;;;5058960;28;21034;-68
2021/12/17 14:03:49;;;;;;;2.43;2.20;;;10.30;99.90;;;;;;5057163;28;20502;-70
2021/12/17 14:06:22;;;;;;;6.30;3.03;;;10.40;99.90;;;;;;5058715;28;21400;-69
2021/12/17 14:08:51;;;;;;;4.27;2.47;;;10.50;99.90;;;;;;5057332;28;20457;-69
2021/12/17 14:11:25;;;;;;;4.07;2.77;;;10.50;99.90;;;;;;5051927;28;20625;-69
2021/12/17 14:13:52;;;;;;;5.13;3.13;;;10.50;99.90;;;;;;5057810;28;20470;-70
2021/12/17 14:16:28;;;;;;;4.63;3.53;;;10.60;99.90;;;;;;5055345;28;20511;-68
2021/12/17 14:18:59;;;;;;;3.77;3.43;;;10.70;99.90;;;;;;5061871;28;20547;-70
2021/12/17 14:21:30;;;;;;;3.00;2.57;;;10.70;99.90;;;;;;5058728;28;20462;-69
2021/12/17 14:23:58;;;;;;;5.17;3.70;;;10.70;99.90;;;;;;5056471;28;20566;-69
2021/12/17 14:26:31;;;;;;;4.87;3.00;;;10.60;99.90;;;;;;5036790;28;20538;-71
2021/12/17 14:29:09;;;;;;;6.20;3.83;;;10.60;99.90;;;;;;5055182;28;20504;-70
2021/12/17 14:31:36;;;;;;;7.03;3.83;;;10.60;99.90;;;;;;5062544;28;20482;-70
2021/12/17 14:34:04;;;;;;;5.57;3.67;;;10.60;99.90;;;;;;5062668;28;21084;-70
2021/12/17 14:36:36;;;;;;;4.67;2.60;;;10.50;99.90;;;;;;5053544;28;20471;-69
2021/12/17 14:39:08;;;;;;;4.37;3.50;;;10.50;99.90;;;;;;5062438;28;20807;-69
2021/12/17 14:41:48;;;;;;;4.00;3.03;;;10.30;99.90;;;;;;5058028;28;20460;-69
2021/12/17 14:44:31;;;;;;;5.53;3.37;;;10.30;99.90;;;;;;5055134;28;21014;-69
2021/12/17 14:47:04;;;;;;;2.83;2.50;;;10.30;99.90;;;;;;5052940;28;20944;-71
2021/12/17 15:00:51;;;;;;;3.30;2.50;;;10.20;99.90;;;;;;5059420;28;20475;-68
2021/12/17 15:03:27;;;;;;;7.03;4.13;;;10.20;99.90;;;;;;5055512;28;20457;-71
2021/12/17 15:05:56;;;;;;;6.40;4.00;;;10.20;99.90;;;;;;5056657;28;20474;-68
2021/12/17 15:08:24;;;;;;;9.17;2.80;;;10.10;99.90;;;;;;5058431;28;20550;-69
2021/12/17 15:10:51;;;;;;;5.77;4.17;;;10.10;99.90;;;;;;5055691;28;20543;-71
2021/12/17 15:13:19;;;;;;;4.73;4.23;;;10.10;99.90;;;;;;5038508;28;20498;-70
2021/12/17 15:15:46;;;;;;;6.43;5.27;;;10.10;99.90;;;;;;5037414;28;21272;-68
2021/12/17 15:18:15;;;;;;;5.47;2.63;;;10.00;99.90;;;;;;5037771;28;20490;-70
2021/12/17 15:20:44;;;;;;;5.00;3.53;;;9.80;99.90;;;;;;5041846;28;20942;-71
2021/12/17 15:23:12;;;;;;;7.23;3.93;;;9.80;99.90;;;;;;5040289;28;20982;-72
2021/12/17 15:25:39;;;;;;;7.93;4.03;;;9.90;99.90;;;;;;5049831;28;20487;-70
2021/12/17 15:28:07;;;;;;;6.80;2.80;;;10.20;99.90;;;;;;5046657;28;20458;-69
2021/12/17 15:30:37;;;;;;;5.90;4.30;;;10.20;99.90;;;;;;5055636;28;20543;-69
2021/12/17 15:33:05;;;;;;;5.43;4.30;;;10.20;99.90;;;;;;5049551;28;20569;-69
2021/12/17 15:35:33;;;;;;;12.70;4.70;;;10.30;99.90;;;;;;5050382;28;20590;-69
2021/12/17 15:38:01;;;;;;;7.73;4.67;;;10.20;99.90;;;;;;5031521;28;20463;-68